Big Bear Station Historical Data
Daily Summary for March 9, 2018 Units:  Both    English   Metric
Next Day »
Daily Weekly Monthly Yearly Custom
  High: Low: Average:
Temperature: 57.0 °F /  13.9 °C 30.6 °F /  -0.8 °C 41.8 °F /  5.4 °C
Dew Point: 38.5 °F /  3.6 °C 26.6 °F /  -3 °C 34.1 °F /  1.2 °C
Humidity: 92% 46% 76%
Wind Speed: 7.3mph /  11.7km/h - 1.1mph /  1.8km/h
Wind Gust: -999.0mph /  -1607.7km/h - -
Wind- - WSW
Pressure: 23.49 in /  795.4 hPa 23.43 in /  793.3 hPa -
Precipitation: 0.00 in /  0 mm    
Historical Graphs
 
 
Tabular Data for March 9, 2018
Time Temperature Dew Point Pressure Wind Wind Speed Wind Gust Humidity Rainfall Rate (Hourly)
00:03 33.4 °F /  0.8 °C 26.6 °F /  -3 °C 23.49in /  795.4hPa Calm   -999.0mph /  -1607.7km/h 76% 0in /  0mm
00:18 33.4 °F /  0.8 °C 27.3 °F /  -2.6 °C 23.48in /  795hPa Calm   -999.0mph /  -1607.7km/h 78% 0in /  0mm
00:33 32.9 °F /  0.5 °C 27.4 °F /  -2.6 °C 23.48in /  795hPa Calm   -999.0mph /  -1607.7km/h 80% 0in /  0mm
00:49 32.9 °F /  0.5 °C 27.4 °F /  -2.6 °C 23.48in /  795hPa WNW 1.7mph /  2.7km/h -999.0mph /  -1607.7km/h 80% 0in /  0mm
01:04 33.8 °F /  1 °C 28.0 °F /  -2.2 °C 23.48in /  795hPa Calm   -999.0mph /  -1607.7km/h 79% 0in /  0mm
01:19 34.0 °F /  1.1 °C 28.5 °F /  -1.9 °C 23.48in /  795hPa Calm   -999.0mph /  -1607.7km/h 80% 0in /  0mm
01:34 33.8 °F /  1 °C 28.3 °F /  -2.1 °C 23.48in /  795hPa Calm   -999.0mph /  -1607.7km/h 80% 0in /  0mm
01:50 34.5 °F /  1.4 °C 29.0 °F /  -1.7 °C 23.46in /  794.4hPa Calm   -999.0mph /  -1607.7km/h 80% 0in /  0mm
02:05 36.0 °F /  2.2 °C 29.8 °F /  -1.2 °C 23.46in /  794.4hPa Calm   -999.0mph /  -1607.7km/h 78% 0in /  0mm
02:21 35.8 °F /  2.1 °C 29.9 °F /  -1.2 °C 23.46in /  794.4hPa Calm   -999.0mph /  -1607.7km/h 79% 0in /  0mm
02:36 36.5 °F /  2.5 °C 30.0 °F /  -1.1 °C 23.45in /  794hPa Calm   -999.0mph /  -1607.7km/h 77% 0in /  0mm
02:51 35.8 °F /  2.1 °C 29.3 °F /  -1.5 °C 23.45in /  794hPa Calm   -999.0mph /  -1607.7km/h 77% 0in /  0mm
03:06 35.4 °F /  1.9 °C 29.5 °F /  -1.4 °C 23.45in /  794hPa Calm   -999.0mph /  -1607.7km/h 79% 0in /  0mm
03:22 34.9 °F /  1.6 °C 29.4 °F /  -1.4 °C 23.45in /  794hPa Calm   -999.0mph /  -1607.7km/h 80% 0in /  0mm
03:37 34.2 °F /  1.2 °C 29.3 °F /  -1.5 °C 23.45in /  794hPa Calm   -999.0mph /  -1607.7km/h 82% 0in /  0mm
03:53 33.6 °F /  0.9 °C 29.0 °F /  -1.7 °C 23.45in /  794hPa Calm   -999.0mph /  -1607.7km/h 83% 0in /  0mm
04:12 33.3 °F /  0.7 °C 29.0 °F /  -1.7 °C 23.44in /  793.7hPa Calm   -999.0mph /  -1607.7km/h 84% 0in /  0mm
04:27 33.1 °F /  0.6 °C 29.4 °F /  -1.4 °C 23.45in /  794hPa Calm   -999.0mph /  -1607.7km/h 86% 0in /  0mm
04:43 32.5 °F /  0.3 °C 28.5 °F /  -1.9 °C 23.45in /  794hPa Calm   -999.0mph /  -1607.7km/h 85% 0in /  0mm
04:58 32.2 °F /  0.1 °C 28.2 °F /  -2.1 °C 23.45in /  794hPa Calm   -999.0mph /  -1607.7km/h 85% 0in /  0mm
05:13 31.5 °F /  -0.3 °C 28.1 °F /  -2.2 °C 23.46in /  794.4hPa Calm   -999.0mph /  -1607.7km/h 87% 0in /  0mm
05:28 30.9 °F /  -0.6 °C 27.5 °F /  -2.5 °C 23.45in /  794hPa Calm   -999.0mph /  -1607.7km/h 87% 0in /  0mm
05:43 31.3 °F /  -0.4 °C 28.4 °F /  -2 °C 23.45in /  794hPa Calm   -999.0mph /  -1607.7km/h 89% 0in /  0mm
05:58 31.6 °F /  -0.2 °C 28.5 °F /  -1.9 °C 23.45in /  794hPa Calm   -999.0mph /  -1607.7km/h 88% 0in /  0mm
06:14 30.7 °F /  -0.7 °C 27.8 °F /  -2.3 °C 23.45in /  794hPa Calm   -999.0mph /  -1607.7km/h 89% 0in /  0mm
06:29 31.1 °F /  -0.5 °C 28.8 °F /  -1.8 °C 23.45in /  794hPa Calm   -999.0mph /  -1607.7km/h 91% 0in /  0mm
06:44 30.6 °F /  -0.8 °C 28.3 °F /  -2.1 °C 23.45in /  794hPa Calm   -999.0mph /  -1607.7km/h 91% 0in /  0mm
06:59 30.9 °F /  -0.6 °C 28.3 °F /  -2.1 °C 23.46in /  794.4hPa Calm   -999.0mph /  -1607.7km/h 90% 0in /  0mm
07:14 31.5 °F /  -0.3 °C 29.4 °F /  -1.4 °C 23.46in /  794.4hPa Calm   -999.0mph /  -1607.7km/h 92% 0in /  0mm
07:30 33.4 °F /  0.8 °C 30.8 °F /  -0.7 °C 23.46in /  794.4hPa Calm   -999.0mph /  -1607.7km/h 90% 0in /  0mm
07:45 35.4 °F /  1.9 °C 31.6 °F /  -0.2 °C 23.47in /  794.7hPa Calm   -999.0mph /  -1607.7km/h 86% 0in /  0mm
08:00 35.8 °F /  2.1 °C 32.3 °F /  0.2 °C 23.47in /  794.7hPa Calm   -999.0mph /  -1607.7km/h 87% 0in /  0mm
08:15 37.4 °F /  3 °C 33.6 °F /  0.9 °C 23.46in /  794.4hPa Calm   -999.0mph /  -1607.7km/h 86% 0in /  0mm
08:31 40.1 °F /  4.5 °C 35.4 °F /  1.9 °C 23.46in /  794.4hPa Calm   -999.0mph /  -1607.7km/h 83% 0in /  0mm
08:46 42.3 °F /  5.7 °C 36.9 °F /  2.7 °C 23.46in /  794.4hPa Calm   -999.0mph /  -1607.7km/h 81% 0in /  0mm
09:01 44.8 °F /  7.1 °C 36.7 °F /  2.6 °C 23.47in /  794.7hPa Calm   -999.0mph /  -1607.7km/h 73% 0in /  0mm
09:16 45.5 °F /  7.5 °C 36.3 °F /  2.4 °C 23.46in /  794.4hPa Calm   -999.0mph /  -1607.7km/h 70% 0in /  0mm
09:32 47.1 °F /  8.4 °C 36.7 °F /  2.6 °C 23.46in /  794.4hPa Calm   -999.0mph /  -1607.7km/h 67% 0in /  0mm
09:47 48.9 °F /  9.4 °C 36.9 °F /  2.7 °C 23.46in /  794.4hPa NNE 2.2mph /  3.5km/h -999.0mph /  -1607.7km/h 63% 0in /  0mm
10:03 51.8 °F /  11 °C 36.1 °F /  2.3 °C 23.46in /  794.4hPa ESE 1.7mph /  2.7km/h -999.0mph /  -1607.7km/h 55% 0in /  0mm
10:19 53.6 °F /  12 °C 36.9 °F /  2.7 °C 23.46in /  794.4hPa NNW 1.7mph /  2.7km/h -999.0mph /  -1607.7km/h 53% 0in /  0mm
10:34 54.0 °F /  12.2 °C 36.3 °F /  2.4 °C 23.46in /  794.4hPa NNW 2.2mph /  3.5km/h -999.0mph /  -1607.7km/h 51% 0in /  0mm
10:49 54.9 °F /  12.7 °C 36.6 °F /  2.6 °C 23.47in /  794.7hPa NE 5.3mph /  8.5km/h -999.0mph /  -1607.7km/h 50% 0in /  0mm
11:07 54.7 °F /  12.6 °C 37.9 °F /  3.3 °C 23.47in /  794.7hPa NNW 2.7mph /  4.3km/h -999.0mph /  -1607.7km/h 53% 0in /  0mm
11:22 56.3 °F /  13.5 °C 37.4 °F /  3 °C 23.47in /  794.7hPa NNW 7.3mph /  11.7km/h -999.0mph /  -1607.7km/h 49% 0in /  0mm
11:38 56.3 °F /  13.5 °C 36.9 °F /  2.7 °C 23.46in /  794.4hPa NNW 5.3mph /  8.5km/h -999.0mph /  -1607.7km/h 48% 0in /  0mm
11:55 55.9 °F /  13.3 °C 35.4 °F /  1.9 °C 23.46in /  794.4hPa WNW 5.3mph /  8.5km/h -999.0mph /  -1607.7km/h 46% 0in /  0mm
12:13 57.0 °F /  13.9 °C 37.0 °F /  2.8 °C 23.46in /  794.4hPa South 3.2mph /  5.1km/h -999.0mph /  -1607.7km/h 47% 0in /  0mm
12:28 56.7 °F /  13.7 °C 37.2 °F /  2.9 °C 23.45in /  794hPa NW 3.2mph /  5.1km/h -999.0mph /  -1607.7km/h 48% 0in /  0mm
12:44 55.2 °F /  12.9 °C 36.9 °F /  2.7 °C 23.45in /  794hPa SW 1.1mph /  1.8km/h -999.0mph /  -1607.7km/h 50% 0in /  0mm
12:59 56.1 °F /  13.4 °C 38.2 °F /  3.4 °C 23.45in /  794hPa NE 4.2mph /  6.8km/h -999.0mph /  -1607.7km/h 51% 0in /  0mm
13:15 55.2 °F /  12.9 °C 37.9 °F /  3.3 °C 23.45in /  794hPa SE 5.3mph /  8.5km/h -999.0mph /  -1607.7km/h 52% 0in /  0mm
13:30 53.4 °F /  11.9 °C 37.6 °F /  3.1 °C 23.45in /  794hPa South 5.3mph /  8.5km/h -999.0mph /  -1607.7km/h 55% 0in /  0mm
13:46 53.4 °F /  11.9 °C 38.5 °F /  3.6 °C 23.45in /  794hPa NW 2.7mph /  4.3km/h -999.0mph /  -1607.7km/h 57% 0in /  0mm
14:01 52.2 °F /  11.2 °C 37.9 °F /  3.3 °C 23.45in /  794hPa South 3.7mph /  6km/h -999.0mph /  -1607.7km/h 58% 0in /  0mm
14:21 51.8 °F /  11 °C 38.4 °F /  3.6 °C 23.45in /  794hPa NNW 4.7mph /  7.6km/h -999.0mph /  -1607.7km/h 60% 0in /  0mm
14:37 51.4 °F /  10.8 °C 38.4 °F /  3.6 °C 23.45in /  794hPa NW 2.2mph /  3.5km/h -999.0mph /  -1607.7km/h 61% 0in /  0mm
14:52 51.4 °F /  10.8 °C 38.4 °F /  3.6 °C 23.45in /  794hPa West 3.7mph /  6km/h -999.0mph /  -1607.7km/h 61% 0in /  0mm
15:07 51.1 °F /  10.6 °C 38.5 °F /  3.6 °C 23.45in /  794hPa West 2.7mph /  4.3km/h -999.0mph /  -1607.7km/h 62% 0in /  0mm
15:22 51.1 °F /  10.6 °C 38.1 °F /  3.4 °C 23.45in /  794hPa NNW 3.7mph /  6km/h -999.0mph /  -1607.7km/h 61% 0in /  0mm
15:39 51.1 °F /  10.6 °C 38.5 °F /  3.6 °C 23.45in /  794hPa NW 4.2mph /  6.8km/h -999.0mph /  -1607.7km/h 62% 0in /  0mm
15:56 49.8 °F /  9.9 °C 38.5 °F /  3.6 °C 23.45in /  794hPa Calm   -999.0mph /  -1607.7km/h 65% 0in /  0mm
16:11 49.8 °F /  9.9 °C 38.5 °F /  3.6 °C 23.44in /  793.7hPa West 2.2mph /  3.5km/h -999.0mph /  -1607.7km/h 65% 0in /  0mm
16:27 48.6 °F /  9.2 °C 38.5 °F /  3.6 °C 23.44in /  793.7hPa NW 3.2mph /  5.1km/h -999.0mph /  -1607.7km/h 68% 0in /  0mm
16:42 48.2 °F /  9 °C 38.1 °F /  3.4 °C 23.45in /  794hPa West 2.7mph /  4.3km/h -999.0mph /  -1607.7km/h 68% 0in /  0mm
16:57 47.1 °F /  8.4 °C 38.2 °F /  3.4 °C 23.44in /  793.7hPa NNW 1.7mph /  2.7km/h -999.0mph /  -1607.7km/h 71% 0in /  0mm
17:12 46.2 °F /  7.9 °C 38.0 °F /  3.3 °C 23.44in /  793.7hPa NE 1.1mph /  1.8km/h -999.0mph /  -1607.7km/h 73% 0in /  0mm
17:28 45.5 °F /  7.5 °C 38.0 °F /  3.3 °C 23.44in /  793.7hPa South 1.7mph /  2.7km/h -999.0mph /  -1607.7km/h 75% 0in /  0mm
17:44 44.4 °F /  6.9 °C 37.3 °F /  2.9 °C 23.44in /  793.7hPa Calm   -999.0mph /  -1607.7km/h 76% 0in /  0mm
17:59 43.7 °F /  6.5 °C 37.6 °F /  3.1 °C 23.44in /  793.7hPa Calm   -999.0mph /  -1607.7km/h 79% 0in /  0mm
18:14 42.8 °F /  6 °C 37.1 °F /  2.8 °C 23.44in /  793.7hPa Calm   -999.0mph /  -1607.7km/h 80% 0in /  0mm
18:30 42.3 °F /  5.7 °C 36.9 °F /  2.7 °C 23.44in /  793.7hPa Calm   -999.0mph /  -1607.7km/h 81% 0in /  0mm
18:45 41.7 °F /  5.4 °C 36.6 °F /  2.6 °C 23.44in /  793.7hPa SW 1.1mph /  1.8km/h -999.0mph /  -1607.7km/h 82% 0in /  0mm
19:00 41.0 °F /  5 °C 36.2 °F /  2.3 °C 23.44in /  793.7hPa Calm   -999.0mph /  -1607.7km/h 83% 0in /  0mm
19:15 40.6 °F /  4.8 °C 36.1 °F /  2.3 °C 23.45in /  794hPa Calm   -999.0mph /  -1607.7km/h 84% 0in /  0mm
19:30 40.3 °F /  4.6 °C 35.9 °F /  2.2 °C 23.45in /  794hPa Calm   -999.0mph /  -1607.7km/h 84% 0in /  0mm
19:45 39.6 °F /  4.2 °C 35.5 °F /  1.9 °C 23.45in /  794hPa Calm   -999.0mph /  -1607.7km/h 85% 0in /  0mm
20:01 39.4 °F /  4.1 °C 35.3 °F /  1.8 °C 23.45in /  794hPa Calm   -999.0mph /  -1607.7km/h 85% 0in /  0mm
20:16 38.5 °F /  3.6 °C 34.7 °F /  1.5 °C 23.44in /  793.7hPa Calm   -999.0mph /  -1607.7km/h 86% 0in /  0mm
20:31 38.3 °F /  3.5 °C 35.1 °F /  1.7 °C 23.45in /  794hPa Calm   -999.0mph /  -1607.7km/h 88% 0in /  0mm
20:48 38.3 °F /  3.5 °C 35.1 °F /  1.7 °C 23.45in /  794hPa Calm   -999.0mph /  -1607.7km/h 88% 0in /  0mm
21:03 39.0 °F /  3.9 °C 35.7 °F /  2.1 °C 23.45in /  794hPa Calm   -999.0mph /  -1607.7km/h 88% 0in /  0mm
21:19 38.7 °F /  3.7 °C 35.7 °F /  2.1 °C 23.45in /  794hPa Calm   -999.0mph /  -1607.7km/h 89% 0in /  0mm
21:34 38.5 °F /  3.6 °C 35.5 °F /  1.9 °C 23.45in /  794hPa Calm   -999.0mph /  -1607.7km/h 89% 0in /  0mm
21:50 38.8 °F /  3.8 °C 36.1 °F /  2.3 °C 23.45in /  794hPa Calm   -999.0mph /  -1607.7km/h 90% 0in /  0mm
22:07 39.2 °F /  4 °C 36.2 °F /  2.3 °C 23.45in /  794hPa Calm   -999.0mph /  -1607.7km/h 89% 0in /  0mm
22:22 39.0 °F /  3.9 °C 36.0 °F /  2.2 °C 23.45in /  794hPa Calm   -999.0mph /  -1607.7km/h 89% 0in /  0mm
22:37 39.2 °F /  4 °C 36.5 °F /  2.5 °C 23.45in /  794hPa Calm   -999.0mph /  -1607.7km/h 90% 0in /  0mm
22:52 39.2 °F /  4 °C 36.5 °F /  2.5 °C 23.44in /  793.7hPa West 1.1mph /  1.8km/h -999.0mph /  -1607.7km/h 90% 0in /  0mm
23:10 39.4 °F /  4.1 °C 36.4 °F /  2.4 °C 23.45in /  794hPa WNW 2.2mph /  3.5km/h -999.0mph /  -1607.7km/h 89% 0in /  0mm
23:25 39.2 °F /  4 °C 36.2 °F /  2.3 °C 23.44in /  793.7hPa Calm   -999.0mph /  -1607.7km/h 89% 0in /  0mm
23:40 38.7 °F /  3.7 °C 36.0 °F /  2.2 °C 23.44in /  793.7hPa Calm   -999.0mph /  -1607.7km/h 90% 0in /  0mm
23:56 39.0 °F /  3.9 °C 36.3 °F /  2.4 °C 23.43in /  793.3hPa ENE 2.2mph /  3.5km/h -999.0mph /  -1607.7km/h 90% 0in /  0mm
Big Bear CA Weather